INY weather

Inyati Airport
Inyati, Limpopo, South Africa

Public forecast

Using degrees Celsius for public forecast. Weather courtesy of forecast.io.

METAR (pilot weather report)

Closest report is Hoedspruit Air Force Base Airport, 30.7 nm (56.8 km) NW. Retrieved 2019/07/20 02:00 UTC (11 minutes ago):

FAHS 200200Z AUTO 27006KT //// // ////// 21/M09 Q1014

TAF (pilot weather forecast)

Forecast is more than 12 hours old.

Closest forecast is Hoedspruit Air Force Base Airport, 30.7 nm (56.8 km) NW. Retrieved 2017/05/23 04:01 UTC (2 years ago):

TAF FAHS 230300Z 2304/2315 VRB02KT CAVOK TX29/2312ZTN12/2304Z